sensor_id;sensor_type;location;lat;lon;timestamp;P1;durP1;ratioP1;P2;durP2;ratioP2
16119;SDS011;12670;53.502;10.252;2022-07-10T00:00:49;2.57;;;1.20;;
16119;SDS011;12670;53.502;10.252;2022-07-10T00:03:53;7.53;;;1.73;;
16119;SDS011;12670;53.502;10.252;2022-07-10T00:06:56;5.93;;;1.30;;
16119;SDS011;12670;53.502;10.252;2022-07-10T00:09:59;7.77;;;1.30;;
16119;SDS011;12670;53.502;10.252;2022-07-10T00:13:01;5.83;;;1.27;;
16119;SDS011;12670;53.502;10.252;2022-07-10T00:16:04;3.20;;;1.20;;
16119;SDS011;12670;53.502;10.252;2022-07-10T00:19:09;8.67;;;1.40;;
16119;SDS011;12670;53.502;10.252;2022-07-10T00:22:11;7.57;;;1.60;;
16119;SDS011;12670;53.502;10.252;2022-07-10T00:25:14;4.13;;;1.17;;
16119;SDS011;12670;53.502;10.252;2022-07-10T00:28:17;7.57;;;1.37;;
16119;SDS011;12670;53.502;10.252;2022-07-10T00:31:19;3.83;;;1.23;;
16119;SDS011;12670;53.502;10.252;2022-07-10T00:34:23;5.20;;;1.47;;
16119;SDS011;12670;53.502;10.252;2022-07-10T00:37:26;8.30;;;1.77;;
16119;SDS011;12670;53.502;10.252;2022-07-10T00:40:28;5.07;;;1.50;;
16119;SDS011;12670;53.502;10.252;2022-07-10T00:43:44;5.03;;;1.27;;
16119;SDS011;12670;53.502;10.252;2022-07-10T00:46:53;6.67;;;1.47;;
16119;SDS011;12670;53.502;10.252;2022-07-10T00:49:57;6.80;;;1.33;;
16119;SDS011;12670;53.502;10.252;2022-07-10T00:53:00;10.10;;;1.63;;
16119;SDS011;12670;53.502;10.252;2022-07-10T00:56:03;5.27;;;1.50;;
16119;SDS011;12670;53.502;10.252;2022-07-10T00:59:08;11.33;;;1.90;;
16119;SDS011;12670;53.502;10.252;2022-07-10T01:02:11;8.07;;;1.50;;
16119;SDS011;12670;53.502;10.252;2022-07-10T01:05:16;7.93;;;1.43;;
16119;SDS011;12670;53.502;10.252;2022-07-10T01:08:19;5.23;;;1.40;;
16119;SDS011;12670;53.502;10.252;2022-07-10T01:11:22;9.07;;;1.80;;
16119;SDS011;12670;53.502;10.252;2022-07-10T01:14:25;7.27;;;1.70;;
16119;SDS011;12670;53.502;10.252;2022-07-10T01:17:27;7.67;;;1.67;;
16119;SDS011;12670;53.502;10.252;2022-07-10T01:20:33;6.30;;;1.40;;
16119;SDS011;12670;53.502;10.252;2022-07-10T01:23:37;8.10;;;1.87;;
16119;SDS011;12670;53.502;10.252;2022-07-10T01:26:40;7.47;;;1.27;;
16119;SDS011;12670;53.502;10.252;2022-07-10T01:29:44;10.80;;;1.83;;
16119;SDS011;12670;53.502;10.252;2022-07-10T01:32:48;11.73;;;1.77;;
16119;SDS011;12670;53.502;10.252;2022-07-10T01:35:50;6.10;;;1.73;;
16119;SDS011;12670;53.502;10.252;2022-07-10T01:38:55;4.73;;;1.40;;
16119;SDS011;12670;53.502;10.252;2022-07-10T01:41:59;9.57;;;1.57;;
16119;SDS011;12670;53.502;10.252;2022-07-10T01:45:01;7.47;;;1.50;;
16119;SDS011;12670;53.502;10.252;2022-07-10T01:48:07;8.57;;;1.60;;
16119;SDS011;12670;53.502;10.252;2022-07-10T01:51:10;4.47;;;1.03;;
16119;SDS011;12670;53.502;10.252;2022-07-10T01:54:14;6.77;;;1.60;;
16119;SDS011;12670;53.502;10.252;2022-07-10T01:57:17;7.00;;;1.30;;
16119;SDS011;12670;53.502;10.252;2022-07-10T02:00:20;5.43;;;1.43;;
16119;SDS011;12670;53.502;10.252;2022-07-10T02:03:22;5.83;;;1.50;;
16119;SDS011;12670;53.502;10.252;2022-07-10T02:06:42;9.10;;;1.40;;
16119;SDS011;12670;53.502;10.252;2022-07-10T02:09:47;8.20;;;1.77;;
16119;SDS011;12670;53.502;10.252;2022-07-10T02:12:49;8.57;;;1.70;;
16119;SDS011;12670;53.502;10.252;2022-07-10T02:15:52;8.00;;;1.50;;
16119;SDS011;12670;53.502;10.252;2022-07-10T02:18:55;5.00;;;1.70;;
16119;SDS011;12670;53.502;10.252;2022-07-10T02:21:58;5.23;;;1.53;;
16119;SDS011;12670;53.502;10.252;2022-07-10T02:25:02;8.43;;;1.80;;
16119;SDS011;12670;53.502;10.252;2022-07-10T02:28:05;5.77;;;1.57;;
16119;SDS011;12670;53.502;10.252;2022-07-10T02:31:07;6.40;;;1.83;;
16119;SDS011;12670;53.502;10.252;2022-07-10T02:34:10;8.77;;;1.60;;
16119;SDS011;12670;53.502;10.252;2022-07-10T02:37:14;10.93;;;2.00;;
16119;SDS011;12670;53.502;10.252;2022-07-10T02:40:18;5.40;;;1.70;;
16119;SDS011;12670;53.502;10.252;2022-07-10T02:43:20;5.03;;;1.40;;
16119;SDS011;12670;53.502;10.252;2022-07-10T02:46:23;4.83;;;1.57;;
16119;SDS011;12670;53.502;10.252;2022-07-10T02:49:26;8.97;;;1.83;;
16119;SDS011;12670;53.502;10.252;2022-07-10T02:52:28;7.10;;;1.80;;
16119;SDS011;12670;53.502;10.252;2022-07-10T02:55:33;8.43;;;1.80;;
16119;SDS011;12670;53.502;10.252;2022-07-10T02:58:37;7.27;;;1.50;;
16119;SDS011;12670;53.502;10.252;2022-07-10T03:01:41;10.30;;;1.97;;
16119;SDS011;12670;53.502;10.252;2022-07-10T03:04:44;4.87;;;1.47;;
16119;SDS011;12670;53.502;10.252;2022-07-10T03:07:46;8.57;;;1.50;;
16119;SDS011;12670;53.502;10.252;2022-07-10T03:10:51;14.33;;;1.97;;
16119;SDS011;12670;53.502;10.252;2022-07-10T03:13:53;8.83;;;1.63;;
16119;SDS011;12670;53.502;10.252;2022-07-10T03:16:56;8.10;;;1.53;;
16119;SDS011;12670;53.502;10.252;2022-07-10T03:19:59;12.40;;;2.03;;
16119;SDS011;12670;53.502;10.252;2022-07-10T03:23:01;8.80;;;1.73;;
16119;SDS011;12670;53.502;10.252;2022-07-10T03:26:06;9.33;;;2.40;;
16119;SDS011;12670;53.502;10.252;2022-07-10T03:29:09;7.73;;;1.90;;
16119;SDS011;12670;53.502;10.252;2022-07-10T03:32:11;10.77;;;1.90;;
16119;SDS011;12670;53.502;10.252;2022-07-10T03:35:14;9.13;;;1.97;;
16119;SDS011;12670;53.502;10.252;2022-07-10T03:38:16;11.93;;;2.00;;
16119;SDS011;12670;53.502;10.252;2022-07-10T03:41:20;8.77;;;1.80;;
16119;SDS011;12670;53.502;10.252;2022-07-10T03:44:23;10.17;;;2.20;;
16119;SDS011;12670;53.502;10.252;2022-07-10T03:47:26;12.57;;;2.67;;
16119;SDS011;12670;53.502;10.252;2022-07-10T03:50:28;9.47;;;2.47;;
16119;SDS011;12670;53.502;10.252;2022-07-10T03:53:31;9.60;;;1.93;;
16119;SDS011;12670;53.502;10.252;2022-07-10T03:56:35;15.57;;;2.10;;
16119;SDS011;12670;53.502;10.252;2022-07-10T03:59:55;10.50;;;2.53;;
16119;SDS011;12670;53.502;10.252;2022-07-10T04:02:59;11.20;;;2.70;;
16119;SDS011;12670;53.502;10.252;2022-07-10T04:06:03;11.27;;;2.23;;
16119;SDS011;12670;53.502;10.252;2022-07-10T04:09:05;9.70;;;2.00;;
16119;SDS011;12670;53.502;10.252;2022-07-10T04:12:09;15.27;;;2.20;;
16119;SDS011;12670;53.502;10.252;2022-07-10T04:15:12;10.77;;;2.10;;
16119;SDS011;12670;53.502;10.252;2022-07-10T04:18:15;12.07;;;2.33;;
16119;SDS011;12670;53.502;10.252;2022-07-10T04:21:17;9.03;;;2.00;;
16119;SDS011;12670;53.502;10.252;2022-07-10T04:24:20;12.63;;;2.13;;
16119;SDS011;12670;53.502;10.252;2022-07-10T04:27:24;19.10;;;4.00;;
16119;SDS011;12670;53.502;10.252;2022-07-10T04:30:27;12.40;;;2.80;;
16119;SDS011;12670;53.502;10.252;2022-07-10T04:33:29;20.43;;;3.17;;
16119;SDS011;12670;53.502;10.252;2022-07-10T04:36:32;15.33;;;2.50;;
16119;SDS011;12670;53.502;10.252;2022-07-10T04:39:34;16.50;;;2.60;;
16119;SDS011;12670;53.502;10.252;2022-07-10T04:42:40;11.77;;;2.50;;
16119;SDS011;12670;53.502;10.252;2022-07-10T04:45:42;12.50;;;2.40;;
16119;SDS011;12670;53.502;10.252;2022-07-10T04:48:46;13.90;;;2.40;;
16119;SDS011;12670;53.502;10.252;2022-07-10T04:51:48;13.60;;;2.47;;
16119;SDS011;12670;53.502;10.252;2022-07-10T04:54:51;11.80;;;2.67;;
16119;SDS011;12670;53.502;10.252;2022-07-10T04:57:55;16.30;;;2.97;;
16119;SDS011;12670;53.502;10.252;2022-07-10T05:00:58;11.23;;;2.40;;
16119;SDS011;12670;53.502;10.252;2022-07-10T05:04:00;18.70;;;2.80;;
16119;SDS011;12670;53.502;10.252;2022-07-10T05:07:03;16.30;;;2.90;;
16119;SDS011;12670;53.502;10.252;2022-07-10T05:10:06;9.30;;;2.50;;
16119;SDS011;12670;53.502;10.252;2022-07-10T05:13:11;17.20;;;2.70;;
16119;SDS011;12670;53.502;10.252;2022-07-10T05:16:14;14.90;;;3.00;;
16119;SDS011;12670;53.502;10.252;2022-07-10T05:19:21;13.90;;;2.90;;
16119;SDS011;12670;53.502;10.252;2022-07-10T05:22:23;18.67;;;2.90;;
16119;SDS011;12670;53.502;10.252;2022-07-10T05:25:27;16.07;;;3.47;;
16119;SDS011;12670;53.502;10.252;2022-07-10T05:28:33;17.07;;;3.23;;
16119;SDS011;12670;53.502;10.252;2022-07-10T05:31:35;17.67;;;2.93;;
16119;SDS011;12670;53.502;10.252;2022-07-10T05:34:38;19.37;;;3.33;;
16119;SDS011;12670;53.502;10.252;2022-07-10T05:37:41;20.23;;;3.07;;
16119;SDS011;12670;53.502;10.252;2022-07-10T05:40:44;22.07;;;3.20;;
16119;SDS011;12670;53.502;10.252;2022-07-10T05:43:48;23.30;;;3.77;;
16119;SDS011;12670;53.502;10.252;2022-07-10T05:46:50;19.57;;;2.87;;
16119;SDS011;12670;53.502;10.252;2022-07-10T05:49:53;18.13;;;2.70;;
16119;SDS011;12670;53.502;10.252;2022-07-10T05:52:56;18.37;;;2.50;;
16119;SDS011;12670;53.502;10.252;2022-07-10T05:55:59;12.03;;;2.93;;
16119;SDS011;12670;53.502;10.252;2022-07-10T05:59:03;14.77;;;2.60;;
16119;SDS011;12670;53.502;10.252;2022-07-10T06:02:06;19.87;;;3.47;;
16119;SDS011;12670;53.502;10.252;2022-07-10T06:05:09;20.67;;;3.20;;
16119;SDS011;12670;53.502;10.252;2022-07-10T06:08:12;15.10;;;3.00;;
16119;SDS011;12670;53.502;10.252;2022-07-10T06:11:14;15.93;;;3.50;;
16119;SDS011;12670;53.502;10.252;2022-07-10T06:14:18;17.73;;;2.63;;
16119;SDS011;12670;53.502;10.252;2022-07-10T06:17:21;22.00;;;3.03;;
16119;SDS011;12670;53.502;10.252;2022-07-10T06:20:24;14.97;;;3.17;;
16119;SDS011;12670;53.502;10.252;2022-07-10T06:23:27;17.07;;;2.83;;
16119;SDS011;12670;53.502;10.252;2022-07-10T06:26:29;14.63;;;2.97;;
16119;SDS011;12670;53.502;10.252;2022-07-10T06:29:33;21.73;;;3.40;;
16119;SDS011;12670;53.502;10.252;2022-07-10T06:32:38;15.43;;;3.43;;
16119;SDS011;12670;53.502;10.252;2022-07-10T06:35:41;14.83;;;2.77;;
16119;SDS011;12670;53.502;10.252;2022-07-10T06:38:44;15.67;;;2.90;;
16119;SDS011;12670;53.502;10.252;2022-07-10T06:41:46;22.50;;;3.23;;
16119;SDS011;12670;53.502;10.252;2022-07-10T06:44:50;18.13;;;2.53;;
16119;SDS011;12670;53.502;10.252;2022-07-10T06:47:53;16.87;;;3.00;;
16119;SDS011;12670;53.502;10.252;2022-07-10T06:50:59;19.43;;;3.13;;
16119;SDS011;12670;53.502;10.252;2022-07-10T06:54:02;11.67;;;2.47;;
16119;SDS011;12670;53.502;10.252;2022-07-10T06:57:05;13.60;;;2.37;;
16119;SDS011;12670;53.502;10.252;2022-07-10T07:00:10;15.80;;;2.73;;
16119;SDS011;12670;53.502;10.252;2022-07-10T07:03:13;13.90;;;2.40;;
16119;SDS011;12670;53.502;10.252;2022-07-10T07:06:16;14.10;;;2.80;;
16119;SDS011;12670;53.502;10.252;2022-07-10T07:09:18;13.90;;;2.67;;
16119;SDS011;12670;53.502;10.252;2022-07-10T07:12:21;14.53;;;2.60;;
16119;SDS011;12670;53.502;10.252;2022-07-10T07:15:25;10.67;;;2.33;;
16119;SDS011;12670;53.502;10.252;2022-07-10T07:18:28;11.47;;;2.30;;
16119;SDS011;12670;53.502;10.252;2022-07-10T07:21:34;14.57;;;2.53;;
16119;SDS011;12670;53.502;10.252;2022-07-10T07:24:54;12.33;;;2.10;;
16119;SDS011;12670;53.502;10.252;2022-07-10T07:27:57;16.77;;;2.53;;
16119;SDS011;12670;53.502;10.252;2022-07-10T07:31:00;10.27;;;2.57;;
16119;SDS011;12670;53.502;10.252;2022-07-10T07:34:03;13.90;;;2.50;;
16119;SDS011;12670;53.502;10.252;2022-07-10T07:37:06;10.27;;;2.00;;
16119;SDS011;12670;53.502;10.252;2022-07-10T07:40:09;14.07;;;2.17;;
16119;SDS011;12670;53.502;10.252;2022-07-10T07:43:13;13.00;;;2.40;;
16119;SDS011;12670;53.502;10.252;2022-07-10T07:46:17;12.90;;;2.20;;
16119;SDS011;12670;53.502;10.252;2022-07-10T07:49:21;17.53;;;2.60;;
16119;SDS011;12670;53.502;10.252;2022-07-10T07:52:23;12.23;;;2.60;;
16119;SDS011;12670;53.502;10.252;2022-07-10T07:55:26;9.70;;;2.37;;
16119;SDS011;12670;53.502;10.252;2022-07-10T07:58:29;11.20;;;2.13;;
16119;SDS011;12670;53.502;10.252;2022-07-10T08:01:33;10.20;;;2.40;;
16119;SDS011;12670;53.502;10.252;2022-07-10T08:04:36;7.97;;;1.93;;
16119;SDS011;12670;53.502;10.252;2022-07-10T08:07:40;9.03;;;2.27;;
16119;SDS011;12670;53.502;10.252;2022-07-10T08:10:43;12.27;;;2.40;;
16119;SDS011;12670;53.502;10.252;2022-07-10T08:13:46;13.60;;;2.20;;
16119;SDS011;12670;53.502;10.252;2022-07-10T08:16:50;10.13;;;2.10;;
16119;SDS011;12670;53.502;10.252;2022-07-10T08:19:53;8.60;;;2.13;;
16119;SDS011;12670;53.502;10.252;2022-07-10T08:22:55;11.23;;;2.30;;
16119;SDS011;12670;53.502;10.252;2022-07-10T08:26:00;11.90;;;2.23;;
16119;SDS011;12670;53.502;10.252;2022-07-10T08:29:03;12.53;;;2.87;;
16119;SDS011;12670;53.502;10.252;2022-07-10T08:32:07;15.17;;;2.47;;
16119;SDS011;12670;53.502;10.252;2022-07-10T08:35:10;10.03;;;2.30;;
16119;SDS011;12670;53.502;10.252;2022-07-10T08:38:14;9.23;;;2.23;;
16119;SDS011;12670;53.502;10.252;2022-07-10T08:41:17;12.53;;;2.27;;
16119;SDS011;12670;53.502;10.252;2022-07-10T08:44:24;9.93;;;2.00;;
16119;SDS011;12670;53.502;10.252;2022-07-10T08:47:29;13.10;;;2.20;;
16119;SDS011;12670;53.502;10.252;2022-07-10T08:50:40;9.10;;;2.00;;
16119;SDS011;12670;53.502;10.252;2022-07-10T08:53:46;6.17;;;1.77;;
16119;SDS011;12670;53.502;10.252;2022-07-10T08:56:51;8.33;;;1.83;;
16119;SDS011;12670;53.502;10.252;2022-07-10T08:59:56;11.97;;;2.23;;
16119;SDS011;12670;53.502;10.252;2022-07-10T09:03:00;11.77;;;2.47;;
16119;SDS011;12670;53.502;10.252;2022-07-10T09:06:03;12.70;;;2.30;;
16119;SDS011;12670;53.502;10.252;2022-07-10T09:09:06;10.93;;;2.17;;
16119;SDS011;12670;53.502;10.252;2022-07-10T09:12:11;12.27;;;2.00;;
16119;SDS011;12670;53.502;10.252;2022-07-10T09:15:14;12.27;;;1.90;;
16119;SDS011;12670;53.502;10.252;2022-07-10T09:18:21;9.40;;;2.00;;
16119;SDS011;12670;53.502;10.252;2022-07-10T09:21:32;13.13;;;2.70;;
16119;SDS011;12670;53.502;10.252;2022-07-10T09:24:35;8.33;;;1.90;;
16119;SDS011;12670;53.502;10.252;2022-07-10T09:27:50;7.37;;;1.80;;
16119;SDS011;12670;53.502;10.252;2022-07-10T09:30:54;8.80;;;1.80;;
16119;SDS011;12670;53.502;10.252;2022-07-10T09:33:59;11.63;;;2.10;;
16119;SDS011;12670;53.502;10.252;2022-07-10T09:37:18;9.80;;;1.93;;
16119;SDS011;12670;53.502;10.252;2022-07-10T09:40:26;8.13;;;1.97;;
16119;SDS011;12670;53.502;10.252;2022-07-10T09:43:35;8.10;;;2.10;;
16119;SDS011;12670;53.502;10.252;2022-07-10T09:46:45;9.00;;;1.83;;
16119;SDS011;12670;53.502;10.252;2022-07-10T09:49:50;9.53;;;1.80;;
16119;SDS011;12670;53.502;10.252;2022-07-10T09:52:53;9.93;;;1.90;;
16119;SDS011;12670;53.502;10.252;2022-07-10T09:55:57;8.23;;;1.83;;
16119;SDS011;12670;53.502;10.252;2022-07-10T09:59:04;11.07;;;2.10;;
16119;SDS011;12670;53.502;10.252;2022-07-10T10:02:10;8.47;;;2.00;;
16119;SDS011;12670;53.502;10.252;2022-07-10T10:05:16;11.50;;;2.17;;
16119;SDS011;12670;53.502;10.252;2022-07-10T10:08:19;14.40;;;2.23;;
16119;SDS011;12670;53.502;10.252;2022-07-10T10:11:26;9.13;;;2.10;;
16119;SDS011;12670;53.502;10.252;2022-07-10T10:14:33;9.93;;;2.30;;
16119;SDS011;12670;53.502;10.252;2022-07-10T10:17:36;11.20;;;1.73;;
16119;SDS011;12670;53.502;10.252;2022-07-10T10:20:43;6.47;;;1.63;;
16119;SDS011;12670;53.502;10.252;2022-07-10T10:23:47;10.20;;;2.10;;
16119;SDS011;12670;53.502;10.252;2022-07-10T10:26:49;10.10;;;1.87;;
16119;SDS011;12670;53.502;10.252;2022-07-10T10:29:52;10.60;;;2.00;;
16119;SDS011;12670;53.502;10.252;2022-07-10T10:32:56;8.63;;;1.83;;
16119;SDS011;12670;53.502;10.252;2022-07-10T10:36:00;7.30;;;1.80;;
16119;SDS011;12670;53.502;10.252;2022-07-10T10:39:08;9.90;;;1.92;;
16119;SDS011;12670;53.502;10.252;2022-07-10T10:42:21;7.53;;;2.00;;
16119;SDS011;12670;53.502;10.252;2022-07-10T10:45:35;11.07;;;2.40;;
16119;SDS011;12670;53.502;10.252;2022-07-10T10:48:38;6.40;;;1.70;;
16119;SDS011;12670;53.502;10.252;2022-07-10T10:52:08;10.40;;;1.90;;
16119;SDS011;12670;53.502;10.252;2022-07-10T10:55:16;10.73;;;1.87;;
16119;SDS011;12670;53.502;10.252;2022-07-10T10:58:19;7.50;;;1.80;;
16119;SDS011;12670;53.502;10.252;2022-07-10T11:01:26;10.23;;;1.90;;
16119;SDS011;12670;53.502;10.252;2022-07-10T11:04:30;8.95;;;1.83;;
16119;SDS011;12670;53.502;10.252;2022-07-10T11:07:52;6.82;;;1.70;;
16119;SDS011;12670;53.502;10.252;2022-07-10T11:10:55;11.35;;;1.85;;
16119;SDS011;12670;53.502;10.252;2022-07-10T11:14:00;3.33;;;1.27;;
16119;SDS011;12670;53.502;10.252;2022-07-10T11:17:06;7.28;;;1.73;;
16119;SDS011;12670;53.502;10.252;2022-07-10T11:20:10;5.05;;;1.52;;
16119;SDS011;12670;53.502;10.252;2022-07-10T11:23:22;5.55;;;1.50;;
16119;SDS011;12670;53.502;10.252;2022-07-10T11:26:40;7.22;;;1.60;;
16119;SDS011;12670;53.502;10.252;2022-07-10T11:29:58;5.90;;;1.90;;
16119;SDS011;12670;53.502;10.252;2022-07-10T11:33:03;6.22;;;1.55;;
16119;SDS011;12670;53.502;10.252;2022-07-10T11:36:09;7.95;;;1.85;;
16119;SDS011;12670;53.502;10.252;2022-07-10T11:39:15;5.45;;;1.40;;
16119;SDS011;12670;53.502;10.252;2022-07-10T11:42:18;6.43;;;1.63;;
16119;SDS011;12670;53.502;10.252;2022-07-10T11:45:30;3.10;;;1.35;;
16119;SDS011;12670;53.502;10.252;2022-07-10T11:48:38;5.60;;;1.27;;
16119;SDS011;12670;53.502;10.252;2022-07-10T11:51:42;11.68;;;2.17;;
16119;SDS011;12670;53.502;10.252;2022-07-10T11:54:47;10.50;;;1.63;;
16119;SDS011;12670;53.502;10.252;2022-07-10T11:57:50;7.38;;;1.77;;
16119;SDS011;12670;53.502;10.252;2022-07-10T12:00:57;7.45;;;1.70;;
16119;SDS011;12670;53.502;10.252;2022-07-10T12:04:03;6.07;;;1.50;;
16119;SDS011;12670;53.502;10.252;2022-07-10T12:07:07;7.35;;;1.30;;
16119;SDS011;12670;53.502;10.252;2022-07-10T12:10:11;11.25;;;2.03;;
16119;SDS011;12670;53.502;10.252;2022-07-10T12:13:14;11.57;;;1.40;;
16119;SDS011;12670;53.502;10.252;2022-07-10T12:16:17;9.13;;;1.40;;
16119;SDS011;12670;53.502;10.252;2022-07-10T12:19:21;9.48;;;1.80;;
16119;SDS011;12670;53.502;10.252;2022-07-10T12:22:25;7.10;;;1.70;;
16119;SDS011;12670;53.502;10.252;2022-07-10T12:25:29;8.53;;;1.77;;
16119;SDS011;12670;53.502;10.252;2022-07-10T12:28:46;4.03;;;1.50;;
16119;SDS011;12670;53.502;10.252;2022-07-10T12:31:51;5.90;;;1.57;;
16119;SDS011;12670;53.502;10.252;2022-07-10T12:34:57;7.90;;;1.43;;
16119;SDS011;12670;53.502;10.252;2022-07-10T12:38:00;6.03;;;1.50;;
16119;SDS011;12670;53.502;10.252;2022-07-10T12:41:08;10.53;;;1.60;;
16119;SDS011;12670;53.502;10.252;2022-07-10T12:44:11;7.53;;;1.60;;
16119;SDS011;12670;53.502;10.252;2022-07-10T12:47:15;9.50;;;1.93;;
16119;SDS011;12670;53.502;10.252;2022-07-10T12:50:22;6.90;;;1.50;;
16119;SDS011;12670;53.502;10.252;2022-07-10T12:53:26;5.80;;;1.60;;
16119;SDS011;12670;53.502;10.252;2022-07-10T12:56:31;6.13;;;1.57;;
16119;SDS011;12670;53.502;10.252;2022-07-10T12:59:36;5.50;;;1.73;;
16119;SDS011;12670;53.502;10.252;2022-07-10T13:02:39;8.00;;;1.83;;
16119;SDS011;12670;53.502;10.252;2022-07-10T13:05:42;9.50;;;1.83;;
16119;SDS011;12670;53.502;10.252;2022-07-10T13:08:45;11.10;;;1.80;;
16119;SDS011;12670;53.502;10.252;2022-07-10T13:11:50;12.50;;;1.90;;
16119;SDS011;12670;53.502;10.252;2022-07-10T13:14:53;6.63;;;1.87;;
16119;SDS011;12670;53.502;10.252;2022-07-10T13:17:56;9.60;;;2.00;;
16119;SDS011;12670;53.502;10.252;2022-07-10T13:20:59;9.57;;;2.03;;
16119;SDS011;12670;53.502;10.252;2022-07-10T13:24:03;9.43;;;1.90;;
16119;SDS011;12670;53.502;10.252;2022-07-10T13:27:07;9.87;;;1.90;;
16119;SDS011;12670;53.502;10.252;2022-07-10T13:30:10;8.80;;;2.03;;
16119;SDS011;12670;53.502;10.252;2022-07-10T13:33:13;7.97;;;1.70;;
16119;SDS011;12670;53.502;10.252;2022-07-10T13:36:16;13.63;;;1.77;;
16119;SDS011;12670;53.502;10.252;2022-07-10T13:39:19;4.57;;;1.47;;
16119;SDS011;12670;53.502;10.252;2022-07-10T13:42:23;12.00;;;2.10;;
16119;SDS011;12670;53.502;10.252;2022-07-10T13:45:26;11.10;;;1.80;;
16119;SDS011;12670;53.502;10.252;2022-07-10T13:48:33;9.60;;;2.00;;
16119;SDS011;12670;53.502;10.252;2022-07-10T13:51:36;4.53;;;1.50;;
16119;SDS011;12670;53.502;10.252;2022-07-10T13:54:39;5.87;;;1.70;;
16119;SDS011;12670;53.502;10.252;2022-07-10T13:57:43;6.23;;;1.70;;
16119;SDS011;12670;53.502;10.252;2022-07-10T14:00:46;5.97;;;2.20;;
16119;SDS011;12670;53.502;10.252;2022-07-10T14:03:49;9.47;;;1.80;;
16119;SDS011;12670;53.502;10.252;2022-07-10T14:06:53;6.47;;;1.73;;
16119;SDS011;12670;53.502;10.252;2022-07-10T14:09:56;9.93;;;1.73;;
16119;SDS011;12670;53.502;10.252;2022-07-10T14:13:00;8.90;;;2.00;;
16119;SDS011;12670;53.502;10.252;2022-07-10T14:16:11;18.70;;;2.17;;
16119;SDS011;12670;53.502;10.252;2022-07-10T14:19:14;7.50;;;1.63;;
16119;SDS011;12670;53.502;10.252;2022-07-10T14:22:17;7.77;;;1.47;;
16119;SDS011;12670;53.502;10.252;2022-07-10T14:25:20;9.63;;;1.67;;
16119;SDS011;12670;53.502;10.252;2022-07-10T14:28:29;5.73;;;1.80;;
16119;SDS011;12670;53.502;10.252;2022-07-10T14:31:33;8.70;;;1.70;;
16119;SDS011;12670;53.502;10.252;2022-07-10T14:34:36;6.70;;;1.87;;
16119;SDS011;12670;53.502;10.252;2022-07-10T14:37:38;6.10;;;1.70;;
16119;SDS011;12670;53.502;10.252;2022-07-10T14:40:41;6.83;;;1.60;;
16119;SDS011;12670;53.502;10.252;2022-07-10T14:43:45;8.93;;;2.03;;
16119;SDS011;12670;53.502;10.252;2022-07-10T14:46:48;8.23;;;1.70;;
16119;SDS011;12670;53.502;10.252;2022-07-10T14:49:51;9.23;;;1.90;;
16119;SDS011;12670;53.502;10.252;2022-07-10T14:52:53;6.50;;;1.73;;
16119;SDS011;12670;53.502;10.252;2022-07-10T14:55:56;8.63;;;1.53;;
16119;SDS011;12670;53.502;10.252;2022-07-10T14:59:00;6.20;;;1.77;;
16119;SDS011;12670;53.502;10.252;2022-07-10T15:02:15;7.57;;;1.73;;
16119;SDS011;12670;53.502;10.252;2022-07-10T15:05:18;8.03;;;1.53;;
16119;SDS011;12670;53.502;10.252;2022-07-10T15:08:21;9.37;;;1.53;;
16119;SDS011;12670;53.502;10.252;2022-07-10T15:11:24;7.57;;;1.80;;
16119;SDS011;12670;53.502;10.252;2022-07-10T15:14:28;8.37;;;1.87;;
16119;SDS011;12670;53.502;10.252;2022-07-10T15:17:31;8.60;;;1.60;;
16119;SDS011;12670;53.502;10.252;2022-07-10T15:20:33;10.10;;;2.33;;
16119;SDS011;12670;53.502;10.252;2022-07-10T15:23:38;7.20;;;2.20;;
16119;SDS011;12670;53.502;10.252;2022-07-10T15:26:41;8.93;;;2.17;;
16119;SDS011;12670;53.502;10.252;2022-07-10T15:29:45;6.40;;;1.73;;
16119;SDS011;12670;53.502;10.252;2022-07-10T15:32:47;11.57;;;2.07;;
16119;SDS011;12670;53.502;10.252;2022-07-10T15:35:50;6.07;;;1.67;;
16119;SDS011;12670;53.502;10.252;2022-07-10T15:38:53;5.43;;;1.70;;
16119;SDS011;12670;53.502;10.252;2022-07-10T15:41:56;6.47;;;1.63;;
16119;SDS011;12670;53.502;10.252;2022-07-10T15:44:59;4.93;;;1.43;;
16119;SDS011;12670;53.502;10.252;2022-07-10T15:48:02;12.23;;;2.13;;
16119;SDS011;12670;53.502;10.252;2022-07-10T15:51:05;6.87;;;1.73;;
16119;SDS011;12670;53.502;10.252;2022-07-10T15:54:08;7.80;;;2.20;;
16119;SDS011;12670;53.502;10.252;2022-07-10T15:57:10;13.50;;;2.07;;
16119;SDS011;12670;53.502;10.252;2022-07-10T16:00:15;13.50;;;1.80;;
16119;SDS011;12670;53.502;10.252;2022-07-10T16:03:19;10.97;;;1.63;;
16119;SDS011;12670;53.502;10.252;2022-07-10T16:06:21;7.57;;;1.87;;
16119;SDS011;12670;53.502;10.252;2022-07-10T16:09:24;7.90;;;2.00;;
16119;SDS011;12670;53.502;10.252;2022-07-10T16:12:26;7.77;;;1.47;;
16119;SDS011;12670;53.502;10.252;2022-07-10T16:15:31;9.83;;;1.53;;
16119;SDS011;12670;53.502;10.252;2022-07-10T16:18:33;6.20;;;1.53;;
16119;SDS011;12670;53.502;10.252;2022-07-10T16:21:36;6.67;;;1.50;;
16119;SDS011;12670;53.502;10.252;2022-07-10T16:24:39;8.77;;;1.63;;
16119;SDS011;12670;53.502;10.252;2022-07-10T16:28:02;5.73;;;1.70;;
16119;SDS011;12670;53.502;10.252;2022-07-10T16:31:06;8.23;;;1.90;;
16119;SDS011;12670;53.502;10.252;2022-07-10T16:34:09;7.03;;;1.40;;
16119;SDS011;12670;53.502;10.252;2022-07-10T16:37:12;7.23;;;1.63;;
16119;SDS011;12670;53.502;10.252;2022-07-10T16:40:14;7.00;;;1.90;;
16119;SDS011;12670;53.502;10.252;2022-07-10T16:43:17;7.03;;;1.70;;
16119;SDS011;12670;53.502;10.252;2022-07-10T16:46:21;12.37;;;1.77;;
16119;SDS011;12670;53.502;10.252;2022-07-10T16:49:24;9.20;;;1.67;;
16119;SDS011;12670;53.502;10.252;2022-07-10T16:52:26;5.30;;;1.53;;
16119;SDS011;12670;53.502;10.252;2022-07-10T16:55:30;9.23;;;1.70;;
16119;SDS011;12670;53.502;10.252;2022-07-10T16:58:32;7.40;;;1.63;;
16119;SDS011;12670;53.502;10.252;2022-07-10T17:01:36;10.07;;;1.60;;
16119;SDS011;12670;53.502;10.252;2022-07-10T17:04:40;7.27;;;1.77;;
16119;SDS011;12670;53.502;10.252;2022-07-10T17:07:43;6.87;;;1.60;;
16119;SDS011;12670;53.502;10.252;2022-07-10T17:10:45;6.50;;;1.40;;
16119;SDS011;12670;53.502;10.252;2022-07-10T17:13:48;5.10;;;1.40;;
16119;SDS011;12670;53.502;10.252;2022-07-10T17:16:53;10.20;;;1.53;;
16119;SDS011;12670;53.502;10.252;2022-07-10T17:19:57;10.10;;;1.70;;
16119;SDS011;12670;53.502;10.252;2022-07-10T17:22:59;7.67;;;1.60;;
16119;SDS011;12670;53.502;10.252;2022-07-10T17:26:03;6.30;;;1.70;;
16119;SDS011;12670;53.502;10.252;2022-07-10T17:29:06;5.27;;;1.60;;
16119;SDS011;12670;53.502;10.252;2022-07-10T17:32:10;5.27;;;1.70;;
16119;SDS011;12670;53.502;10.252;2022-07-10T17:35:13;7.93;;;1.70;;
16119;SDS011;12670;53.502;10.252;2022-07-10T17:38:15;9.20;;;1.53;;
16119;SDS011;12670;53.502;10.252;2022-07-10T17:41:21;8.63;;;1.63;;
16119;SDS011;12670;53.502;10.252;2022-07-10T17:44:24;7.33;;;1.70;;
16119;SDS011;12670;53.502;10.252;2022-07-10T17:47:28;8.33;;;2.00;;
16119;SDS011;12670;53.502;10.252;2022-07-10T17:50:31;8.57;;;1.80;;
16119;SDS011;12670;53.502;10.252;2022-07-10T17:53:33;8.13;;;2.20;;
16119;SDS011;12670;53.502;10.252;2022-07-10T17:56:36;7.93;;;1.70;;
16119;SDS011;12670;53.502;10.252;2022-07-10T17:59:39;9.47;;;2.03;;
16119;SDS011;12670;53.502;10.252;2022-07-10T18:02:43;5.70;;;1.43;;
16119;SDS011;12670;53.502;10.252;2022-07-10T18:05:46;11.50;;;2.13;;